Time;durP1;ratioP1;P1;durP2;ratioP2;P2;SDS_P1;SDS_P2;PMS_P1;PMS_P2;Temp;Humidity;BMP_temperature;BMP_pressure;BME280_temperature;BME280_humidity;BME280_pressure;Samples;Min_cycle;Max_cycle;Signal;HPM_P1;HPM_P2
2023/01/17 00:01:28;;;;;;;5.40;5.20;;;2.90;99.90;;;;;;5031109;28;20029;-72
2023/01/17 00:12:06;;;;;;;2.45;2.25;;;2.80;99.90;;;;;;5031317;28;20505;-72
2023/01/17 00:14:32;;;;;;;8.68;8.07;;;2.90;99.90;;;;;;5030994;28;20053;-72
2023/01/17 00:17:00;;;;;;;5.55;5.25;;;2.90;99.90;;;;;;5032655;28;20116;-72
2023/01/17 01:34:02;;;;;;;1.05;1.05;;;2.90;99.90;;;;;;5033554;28;20449;-73
2023/01/17 01:36:27;;;;;;;1.67;1.58;;;3.00;99.90;;;;;;5033100;28;20481;-73
2023/01/17 01:38:53;;;;;;;1.38;1.35;;;2.90;99.90;;;;;;5032932;28;20029;-72
2023/01/17 01:41:19;;;;;;;2.00;1.77;;;2.90;99.90;;;;;;5033128;28;20033;-74
2023/01/17 01:43:50;;;;;;;2.15;2.05;;;2.90;99.90;;;;;;5031582;28;20037;-74
2023/01/17 01:46:41;;;;;;;1.02;1.02;;;2.90;99.90;;;;;;5032993;28;20518;-74
2023/01/17 01:49:23;;;;;;;1.30;1.30;;;2.90;99.90;;;;;;5030916;28;20458;-75
2023/01/17 01:51:53;;;;;;;1.90;1.80;;;2.80;99.90;;;;;;5032706;28;20021;-73
2023/01/17 01:54:27;;;;;;;4.05;2.55;;;2.80;99.90;;;;;;5033158;28;20494;-73
2023/01/17 01:56:55;;;;;;;1.75;1.65;;;2.80;99.90;;;;;;5058567;22;20045;-76
2023/01/17 01:59:22;;;;;;;2.25;2.10;;;2.80;99.90;;;;;;5034779;28;20103;-76
2023/01/17 02:01:50;;;;;;;1.10;1.10;;;2.80;99.90;;;;;;5052535;28;20517;-75
2023/01/17 02:04:17;;;;;;;0.93;0.93;;;2.80;99.90;;;;;;5052625;28;20401;-74
2023/01/17 02:07:01;;;;;;;1.83;1.73;;;2.80;99.90;;;;;;5062991;28;20040;-73
2023/01/17 02:09:27;;;;;;;1.00;1.00;;;2.80;99.90;;;;;;5054291;28;20020;-76
2023/01/17 02:11:53;;;;;;;1.60;1.50;;;2.80;99.90;;;;;;5072266;28;20031;-75
2023/01/17 02:14:21;;;;;;;2.03;1.85;;;2.80;99.90;;;;;;5072365;28;20029;-75
2023/01/17 02:17:07;;;;;;;0.93;0.93;;;2.70;99.90;;;;;;5054008;28;20024;-76
2023/01/17 02:19:57;;;;;;;2.03;1.92;;;2.70;99.90;;;;;;5072233;28;20493;-74
2023/01/17 02:22:54;;;;;;;1.25;1.25;;;2.70;99.90;;;;;;5058850;28;20453;-74
2023/01/17 02:25:52;;;;;;;3.53;2.00;;;2.70;99.90;;;;;;5053041;28;20498;-75
2023/01/17 02:28:54;;;;;;;1.23;1.10;;;2.70;99.90;;;;;;5071908;28;20025;-75
2023/01/17 02:31:37;;;;;;;1.30;1.25;;;2.70;99.90;;;;;;5072072;28;20020;-75
2023/01/17 02:34:15;;;;;;;0.90;0.90;;;2.70;99.90;;;;;;5072041;28;20017;-75
2023/01/17 02:36:53;;;;;;;1.27;1.27;;;2.70;99.90;;;;;;5071727;28;20025;-74
2023/01/17 02:39:22;;;;;;;1.00;0.98;;;2.60;99.90;;;;;;5067943;28;20020;-75
2023/01/17 02:41:52;;;;;;;1.17;1.15;;;2.60;99.90;;;;;;5067134;28;20016;-75
2023/01/17 02:44:19;;;;;;;1.10;1.05;;;2.60;99.90;;;;;;5071931;28;20534;-75
2023/01/17 02:46:47;;;;;;;0.90;0.90;;;2.60;99.90;;;;;;5071678;28;20039;-75
2023/01/17 02:49:14;;;;;;;1.17;1.08;;;2.60;99.90;;;;;;5071801;28;20052;-74
2023/01/17 02:51:49;;;;;;;0.80;0.80;;;2.60;99.90;;;;;;5053732;28;20029;-75
2023/01/17 02:54:23;;;;;;;0.75;0.75;;;2.60;99.90;;;;;;5054044;28;20441;-75
2023/01/17 02:57:08;;;;;;;1.17;1.08;;;2.60;99.90;;;;;;5071348;28;20067;-76
2023/01/17 02:59:46;;;;;;;2.42;1.27;;;2.50;99.90;;;;;;5053811;28;20035;-76
2023/01/17 03:02:19;;;;;;;1.63;1.52;;;2.50;99.90;;;;;;5053832;28;20028;-74
2023/01/17 03:04:57;;;;;;;0.90;0.90;;;2.50;99.90;;;;;;5071464;28;20473;-74
2023/01/17 03:07:25;;;;;;;0.75;0.75;;;2.50;99.90;;;;;;5053458;28;20111;-74
2023/01/17 03:09:58;;;;;;;2.40;1.50;;;2.50;99.90;;;;;;5053420;28;20046;-74
2023/01/17 03:12:29;;;;;;;0.73;0.73;;;2.50;99.90;;;;;;5071437;28;20100;-75
2023/01/17 03:14:55;;;;;;;2.05;1.15;;;2.50;99.90;;;;;;5071529;28;20025;-75
2023/01/17 03:17:23;;;;;;;1.00;1.00;;;2.50;99.90;;;;;;5053230;28;20021;-75
2023/01/17 03:19:49;;;;;;;1.05;1.05;;;2.50;99.90;;;;;;5053416;28;20020;-75
2023/01/17 03:22:15;;;;;;;0.60;0.60;;;2.50;99.90;;;;;;5071428;28;20367;-76
2023/01/17 03:24:40;;;;;;;1.92;1.83;;;2.50;99.90;;;;;;5071507;28;20048;-76
2023/01/17 03:27:06;;;;;;;1.55;1.45;;;2.50;99.90;;;;;;5071007;28;20075;-75
2023/01/17 03:29:31;;;;;;;1.35;1.30;;;2.50;99.90;;;;;;5053516;28;20503;-74
2023/01/17 03:31:57;;;;;;;1.23;1.15;;;2.50;99.90;;;;;;5053212;28;20020;-74
2023/01/17 03:34:22;;;;;;;1.02;1.02;;;2.50;99.90;;;;;;5071300;28;20115;-75
2023/01/17 03:36:48;;;;;;;1.00;0.85;;;2.50;99.90;;;;;;5071147;28;20020;-73
2023/01/17 03:39:14;;;;;;;0.73;0.73;;;2.50;99.90;;;;;;5077692;28;20032;-74
2023/01/17 03:41:39;;;;;;;1.55;1.45;;;2.50;99.90;;;;;;5061485;28;20036;-75
2023/01/17 03:44:05;;;;;;;1.38;1.23;;;2.50;99.90;;;;;;5079111;28;20025;-76
2023/01/17 03:46:30;;;;;;;2.33;1.38;;;2.50;99.90;;;;;;5058315;28;20024;-74
2023/01/17 03:48:56;;;;;;;2.47;1.23;;;2.50;99.90;;;;;;5058094;28;20027;-74
2023/01/17 03:51:21;;;;;;;0.77;0.77;;;2.50;99.90;;;;;;5080737;28;20029;-74
2023/01/17 03:53:48;;;;;;;1.08;1.02;;;2.40;99.90;;;;;;5082197;28;20674;-74
2023/01/17 03:56:14;;;;;;;0.60;0.60;;;2.40;99.90;;;;;;5081019;28;20060;-74
2023/01/17 03:58:40;;;;;;;0.80;0.80;;;2.50;99.90;;;;;;5074373;28;20040;-73
2023/01/17 04:01:05;;;;;;;0.80;0.80;;;2.50;99.90;;;;;;5076199;28;20024;-74
2023/01/17 04:03:31;;;;;;;2.20;0.90;;;2.40;99.90;;;;;;5064541;28;20032;-74
2023/01/17 04:05:56;;;;;;;0.60;0.60;;;2.40;99.90;;;;;;5079457;28;20489;-74
2023/01/17 04:08:22;;;;;;;0.60;0.60;;;2.40;99.90;;;;;;5057327;28;20025;-74
2023/01/17 04:10:47;;;;;;;0.40;0.40;;;2.40;99.90;;;;;;5075285;28;20020;-74
2023/01/17 04:13:13;;;;;;;0.60;0.60;;;2.40;99.90;;;;;;5075402;28;20028;-75
2023/01/17 04:15:39;;;;;;;0.70;0.70;;;2.40;99.90;;;;;;5057168;28;20017;-75
2023/01/17 04:18:05;;;;;;;1.52;1.20;;;2.30;99.90;;;;;;5057721;28;20428;-75
2023/01/17 04:20:36;;;;;;;0.90;0.90;;;2.40;99.90;;;;;;5075214;28;20056;-76
2023/01/17 04:23:02;;;;;;;0.88;0.82;;;2.30;99.90;;;;;;5057010;28;20024;-76
2023/01/17 04:25:29;;;;;;;0.90;0.85;;;2.30;99.90;;;;;;5075272;28;20440;-74
2023/01/17 04:27:56;;;;;;;0.77;0.77;;;2.30;99.90;;;;;;5057296;28;20032;-74
2023/01/17 04:30:22;;;;;;;1.35;1.13;;;2.30;99.90;;;;;;5075110;28;20052;-74
2023/01/17 04:32:47;;;;;;;0.75;0.75;;;2.20;99.90;;;;;;5074771;28;20067;-75
2023/01/17 04:35:13;;;;;;;1.23;1.00;;;2.20;99.90;;;;;;5060739;28;20052;-74
2023/01/17 04:37:39;;;;;;;0.50;0.50;;;2.30;99.90;;;;;;5074022;28;20028;-75
2023/01/17 04:40:05;;;;;;;0.50;0.50;;;2.20;99.90;;;;;;5056229;28;20024;-74
2023/01/17 04:42:31;;;;;;;0.70;0.70;;;2.20;99.90;;;;;;5056140;28;20024;-74
2023/01/17 04:44:56;;;;;;;0.73;0.73;;;2.20;99.90;;;;;;5073893;28;20031;-75
2023/01/17 04:47:22;;;;;;;0.50;0.50;;;2.20;99.90;;;;;;5074019;28;20504;-76
2023/01/17 04:49:48;;;;;;;0.80;0.80;;;2.20;99.90;;;;;;5074080;28;20025;-75
2023/01/17 04:52:14;;;;;;;0.90;0.77;;;2.20;99.90;;;;;;5074026;28;20440;-76
2023/01/17 04:54:40;;;;;;;1.80;0.85;;;2.10;99.90;;;;;;5056008;28;20025;-75
2023/01/17 04:57:05;;;;;;;0.93;0.93;;;2.10;99.90;;;;;;5073586;28;20032;-75
2023/01/17 04:59:31;;;;;;;2.03;1.23;;;2.10;99.90;;;;;;5073834;28;20612;-76
2023/01/17 05:01:57;;;;;;;0.70;0.70;;;2.20;99.90;;;;;;5072554;28;20453;-76
2023/01/17 05:04:22;;;;;;;1.05;0.93;;;2.10;99.90;;;;;;5073783;28;20024;-75
2023/01/17 05:06:48;;;;;;;0.30;0.30;;;2.30;99.90;;;;;;5073531;28;20020;-75
2023/01/17 05:09:13;;;;;;;0.85;0.85;;;2.20;99.90;;;;;;5055233;28;20048;-74
2023/01/17 05:11:39;;;;;;;0.40;0.40;;;2.10;99.90;;;;;;5073696;28;20017;-75
2023/01/17 05:14:05;;;;;;;0.70;0.70;;;2.10;99.90;;;;;;5055472;28;20044;-75
2023/01/17 05:16:30;;;;;;;1.17;1.10;;;2.10;99.90;;;;;;5055489;28;20025;-74
2023/01/17 05:18:56;;;;;;;0.50;0.50;;;2.10;99.90;;;;;;5073203;28;20085;-76
2023/01/17 05:21:21;;;;;;;1.13;1.02;;;2.00;99.90;;;;;;5073395;28;20107;-76
2023/01/17 05:23:47;;;;;;;35.65;2.05;;;2.00;99.90;;;;;;5073335;28;20081;-75
2023/01/17 05:26:13;;;;;;;0.75;0.75;;;2.00;99.90;;;;;;5073318;28;20033;-76
2023/01/17 05:28:39;;;;;;;0.73;0.73;;;2.00;99.90;;;;;;5055024;28;20028;-76
2023/01/17 05:31:04;;;;;;;0.30;0.30;;;2.00;99.90;;;;;;5073379;28;20021;-76
2023/01/17 05:33:30;;;;;;;0.45;0.45;;;2.00;99.90;;;;;;5053996;28;20075;-77
2023/01/17 05:35:56;;;;;;;0.43;0.43;;;2.00;99.90;;;;;;5068919;28;20382;-76
2023/01/17 05:38:22;;;;;;;0.80;0.80;;;2.00;99.90;;;;;;5050997;28;20114;-75
2023/01/17 05:40:48;;;;;;;0.40;0.40;;;2.00;99.90;;;;;;5042601;28;20090;-74
2023/01/17 05:43:14;;;;;;;4.15;2.30;;;2.00;99.90;;;;;;5072878;28;20040;-75
2023/01/17 05:45:39;;;;;;;2.78;2.58;;;2.00;99.90;;;;;;5072826;28;20078;-75
2023/01/17 05:48:05;;;;;;;3.50;2.72;;;2.00;99.90;;;;;;5054691;28;20026;-74
2023/01/17 05:50:36;;;;;;;0.85;0.85;;;2.00;99.90;;;;;;5054873;28;20055;-74
2023/01/17 05:53:11;;;;;;;9.40;2.83;;;2.00;99.90;;;;;;5072813;28;20107;-75
2023/01/17 05:55:38;;;;;;;0.40;0.40;;;2.00;99.90;;;;;;5072542;28;20394;-76
2023/01/17 05:58:04;;;;;;;0.32;0.32;;;1.90;99.90;;;;;;5072439;28;20107;-75
2023/01/17 06:00:31;;;;;;;0.75;0.75;;;1.90;99.90;;;;;;5073130;28;20035;-77
2023/01/17 06:02:58;;;;;;;1.27;0.80;;;1.90;99.90;;;;;;5072658;28;20025;-76
2023/01/17 06:05:25;;;;;;;0.88;0.88;;;1.80;99.90;;;;;;5072362;28;20442;-75
2023/01/17 06:07:51;;;;;;;0.52;0.52;;;1.80;99.90;;;;;;5038221;28;20052;-75
2023/01/17 06:10:18;;;;;;;0.50;0.50;;;1.80;99.90;;;;;;5044140;28;20113;-75
2023/01/17 06:12:45;;;;;;;0.65;0.65;;;1.80;99.90;;;;;;5057096;28;20469;-76
2023/01/17 06:15:12;;;;;;;0.50;0.50;;;1.70;99.90;;;;;;5044227;28;20048;-75
2023/01/17 06:17:38;;;;;;;0.45;0.45;;;1.60;99.90;;;;;;5065527;28;20079;-75
2023/01/17 06:20:05;;;;;;;0.50;0.50;;;1.50;99.90;;;;;;5062781;28;20024;-75
2023/01/17 06:22:31;;;;;;;0.55;0.55;;;1.50;99.90;;;;;;5058837;28;20024;-75
2023/01/17 06:24:56;;;;;;;0.40;0.40;;;1.40;99.90;;;;;;5061892;28;20569;-74
2023/01/17 06:27:22;;;;;;;0.40;0.40;;;1.40;99.90;;;;;;5050953;28;20031;-75
2023/01/17 06:29:47;;;;;;;0.50;0.50;;;1.50;99.90;;;;;;5072279;28;20028;-76
2023/01/17 06:32:13;;;;;;;2.65;1.90;;;1.50;99.90;;;;;;5050535;28;20035;-76
2023/01/17 06:34:39;;;;;;;0.57;0.57;;;1.40;99.90;;;;;;5060974;28;20082;-76
2023/01/17 06:37:05;;;;;;;0.50;0.50;;;1.40;99.90;;;;;;5051867;28;20028;-75
2023/01/17 06:39:30;;;;;;;0.43;0.43;;;1.40;99.90;;;;;;5070038;28;20029;-75
2023/01/17 06:41:56;;;;;;;0.40;0.40;;;1.40;99.90;;;;;;5069962;28;20077;-74
2023/01/17 06:44:22;;;;;;;0.40;0.40;;;1.30;99.90;;;;;;5069904;28;20434;-75
2023/01/17 06:46:47;;;;;;;0.50;0.50;;;1.30;99.90;;;;;;5069639;28;20020;-75
2023/01/17 06:49:13;;;;;;;0.57;0.57;;;1.30;99.90;;;;;;5052923;28;20047;-76
2023/01/17 06:51:39;;;;;;;1.50;1.40;;;1.20;99.90;;;;;;5052454;28;20020;-76
2023/01/17 06:54:05;;;;;;;0.40;0.40;;;1.20;99.90;;;;;;5071847;28;20389;-75
2023/01/17 06:56:31;;;;;;;0.70;0.70;;;1.20;99.90;;;;;;5065011;28;20036;-76
2023/01/17 06:58:57;;;;;;;1.17;1.17;;;1.20;99.90;;;;;;5071565;28;20031;-76
2023/01/17 07:01:22;;;;;;;0.52;0.52;;;1.10;99.90;;;;;;5071788;28;20040;-75
2023/01/17 07:03:48;;;;;;;0.57;0.57;;;1.10;99.90;;;;;;5071650;28;20552;-76
2023/01/17 07:06:14;;;;;;;6.30;5.93;;;1.20;99.90;;;;;;5068552;28;20379;-76
2023/01/17 07:08:39;;;;;;;12.55;5.90;;;1.20;99.90;;;;;;5033596;28;20112;-76
2023/01/17 07:11:09;;;;;;;8.95;8.43;;;1.10;99.90;;;;;;5068000;28;20467;-74
2023/01/17 07:13:36;;;;;;;27.80;4.57;;;0.90;99.90;;;;;;5053638;28;20059;-75
2023/01/17 07:16:02;;;;;;;0.50;0.50;;;0.90;99.90;;;;;;5053379;28;20478;-74
2023/01/17 07:18:28;;;;;;;1.05;0.80;;;0.90;99.90;;;;;;5071509;28;20033;-75
2023/01/17 07:20:54;;;;;;;0.82;0.82;;;0.90;99.90;;;;;;5058156;28;20028;-75
2023/01/17 07:23:22;;;;;;;0.40;0.40;;;0.90;99.90;;;;;;5071440;28;20430;-75
2023/01/17 07:25:58;;;;;;;0.60;0.60;;;0.90;99.90;;;;;;5073023;28;20021;-75
2023/01/17 07:28:25;;;;;;;0.50;0.50;;;0.90;99.90;;;;;;5057332;28;20020;-76
2023/01/17 07:30:51;;;;;;;1.00;0.90;;;0.80;99.90;;;;;;5076051;28;20013;-75
2023/01/17 07:33:17;;;;;;;0.50;0.50;;;0.80;99.90;;;;;;5075601;28;20021;-75
2023/01/17 07:35:43;;;;;;;0.50;0.50;;;0.80;99.90;;;;;;5063085;28;20748;-76
2023/01/17 07:38:17;;;;;;;0.60;0.60;;;0.80;99.90;;;;;;5062641;28;20040;-75
2023/01/17 07:40:43;;;;;;;0.50;0.50;;;0.70;99.90;;;;;;5061829;28;20020;-76
2023/01/17 07:43:12;;;;;;;0.55;0.55;;;0.60;99.90;;;;;;5062634;28;20051;-76
2023/01/17 07:45:42;;;;;;;0.50;0.50;;;0.60;99.90;;;;;;5062032;28;20494;-76
2023/01/17 07:48:08;;;;;;;0.50;0.50;;;0.50;99.90;;;;;;5074403;28;20023;-75
2023/01/17 07:50:33;;;;;;;0.88;0.88;;;0.50;99.90;;;;;;5067955;28;20017;-76
2023/01/17 07:52:59;;;;;;;0.50;0.50;;;0.50;99.90;;;;;;5050916;28;20024;-78
2023/01/17 07:55:25;;;;;;;0.50;0.50;;;0.50;99.90;;;;;;5057014;28;20046;-76
2023/01/17 07:57:51;;;;;;;0.50;0.50;;;0.60;99.90;;;;;;5072496;22;20041;-71
2023/01/17 08:00:17;;;;;;;0.52;0.52;;;0.60;99.90;;;;;;5024784;28;20075;-70
2023/01/17 08:02:42;;;;;;;0.50;0.50;;;0.70;99.90;;;;;;5045170;28;20061;-71
2023/01/17 08:05:08;;;;;;;0.50;0.50;;;0.80;99.90;;;;;;5048215;28;20126;-71
2023/01/17 08:07:33;;;;;;;0.50;0.50;;;0.90;99.90;;;;;;5016014;28;20041;-71
2023/01/17 08:10:00;;;;;;;0.50;0.50;;;0.90;99.90;;;;;;5015981;28;20550;-70
2023/01/17 08:12:28;;;;;;;0.50;0.50;;;0.80;99.90;;;;;;5034927;28;20092;-73
2023/01/17 08:14:53;;;;;;;0.50;0.50;;;0.90;99.90;;;;;;5034749;28;20053;-71
2023/01/17 08:17:20;;;;;;;0.73;0.73;;;1.00;99.90;;;;;;5033690;28;20560;-71
2023/01/17 08:19:48;;;;;;;33.30;2.45;;;0.90;99.90;;;;;;4990759;28;20021;-71
2023/01/17 08:22:14;;;;;;;0.60;0.60;;;0.90;99.90;;;;;;5024959;28;20487;-72
2023/01/17 08:24:40;;;;;;;0.80;0.80;;;1.00;99.90;;;;;;5022349;28;20042;-72
2023/01/17 08:27:07;;;;;;;0.50;0.50;;;1.00;99.90;;;;;;5021609;28;20104;-71
2023/01/17 08:29:33;;;;;;;0.45;0.45;;;1.10;99.90;;;;;;5016643;28;20446;-71
2023/01/17 08:31:59;;;;;;;0.50;0.50;;;1.10;99.90;;;;;;5034211;28;20037;-71
2023/01/17 08:34:25;;;;;;;0.40;0.40;;;1.20;99.90;;;;;;5033097;28;20411;-71
2023/01/17 08:36:52;;;;;;;0.50;0.50;;;1.30;99.90;;;;;;5028105;28;20026;-71
2023/01/17 08:39:18;;;;;;;0.45;0.45;;;1.20;99.90;;;;;;5034414;28;20095;-72
2023/01/17 08:41:44;;;;;;;0.60;0.60;;;1.40;99.90;;;;;;5034182;28;20485;-71
2023/01/17 08:44:10;;;;;;;0.50;0.50;;;1.50;99.90;;;;;;5032894;28;20052;-71
2023/01/17 08:46:40;;;;;;;0.60;0.60;;;1.50;99.90;;;;;;5032872;28;20463;-71
2023/01/17 08:49:05;;;;;;;0.40;0.40;;;1.50;99.90;;;;;;5033094;28;20013;-71
2023/01/17 08:51:32;;;;;;;0.50;0.50;;;1.50;99.90;;;;;;5034087;28;20018;-72
2023/01/17 08:53:58;;;;;;;0.70;0.70;;;1.60;99.90;;;;;;5016267;28;20052;-71
2023/01/17 08:56:24;;;;;;;0.50;0.50;;;2.00;99.90;;;;;;5033649;28;20029;-72
2023/01/17 08:58:50;;;;;;;0.60;0.60;;;2.10;99.90;;;;;;5033190;28;20029;-71
2023/01/17 09:01:16;;;;;;;0.60;0.60;;;2.10;99.90;;;;;;5020063;28;20034;-73
2023/01/17 09:03:42;;;;;;;0.50;0.50;;;2.20;99.90;;;;;;5004860;28;20045;-72
2023/01/17 09:06:10;;;;;;;0.60;0.60;;;2.10;99.90;;;;;;5015556;28;20582;-72
2023/01/17 09:08:37;;;;;;;0.60;0.60;;;2.10;99.90;;;;;;5002281;28;20032;-72
2023/01/17 09:11:10;;;;;;;0.60;0.60;;;2.00;99.90;;;;;;5024053;28;20014;-71
2023/01/17 09:13:36;;;;;;;0.70;0.70;;;2.00;99.90;;;;;;5010794;28;20117;-71
2023/01/17 09:16:02;;;;;;;0.57;0.57;;;2.00;99.90;;;;;;5026137;28;20026;-71
2023/01/17 09:18:29;;;;;;;0.45;0.45;;;2.10;99.90;;;;;;5031373;28;20045;-72
2023/01/17 09:20:57;;;;;;;0.50;0.50;;;2.10;99.90;;;;;;5031862;28;20025;-71
2023/01/17 09:23:25;;;;;;;0.50;0.50;;;2.10;99.90;;;;;;5032649;28;20026;-72
2023/01/17 09:25:59;;;;;;;0.55;0.55;;;2.00;99.90;;;;;;5020010;28;20055;-72
2023/01/17 09:28:26;;;;;;;0.47;0.47;;;1.90;99.90;;;;;;5019348;28;20171;-72
2023/01/17 09:30:53;;;;;;;0.50;0.50;;;2.00;99.90;;;;;;5010468;28;20105;-72
2023/01/17 09:33:19;;;;;;;0.70;0.70;;;1.90;99.90;;;;;;5024453;28;20063;-71
2023/01/17 09:35:45;;;;;;;0.50;0.50;;;2.00;99.90;;;;;;5032876;28;20057;-72
2023/01/17 09:38:11;;;;;;;1.25;0.88;;;2.00;99.90;;;;;;5031297;28;20034;-72
2023/01/17 09:40:45;;;;;;;0.70;0.70;;;2.00;99.90;;;;;;5013519;28;20047;-71
2023/01/17 09:43:34;;;;;;;0.55;0.55;;;2.00;99.90;;;;;;5032960;28;20033;-71
2023/01/17 09:46:01;;;;;;;0.65;0.65;;;2.10;99.90;;;;;;4995130;28;20038;-71
2023/01/17 09:48:37;;;;;;;0.60;0.60;;;2.10;99.90;;;;;;5016794;28;20028;-71
2023/01/17 09:51:20;;;;;;;0.93;0.93;;;2.10;99.90;;;;;;5031125;28;20079;-71
2023/01/17 09:53:46;;;;;;;0.60;0.60;;;2.10;99.90;;;;;;5013682;28;20018;-71
2023/01/17 09:56:28;;;;;;;0.50;0.50;;;2.10;99.90;;;;;;5013473;28;20220;-71
2023/01/17 09:59:16;;;;;;;0.50;0.50;;;2.20;99.90;;;;;;5030656;28;20410;-71
2023/01/17 10:01:50;;;;;;;0.57;0.57;;;2.30;99.90;;;;;;5013996;28;20107;-71
2023/01/17 10:04:19;;;;;;;0.50;0.50;;;2.30;99.90;;;;;;5032911;28;20083;-71
2023/01/17 10:07:01;;;;;;;0.43;0.43;;;2.30;99.90;;;;;;5033701;28;20131;-71
2023/01/17 10:09:36;;;;;;;0.50;0.50;;;2.30;99.90;;;;;;5017148;28;20108;-71
2023/01/17 10:12:20;;;;;;;0.40;0.40;;;2.30;99.90;;;;;;5021472;28;20018;-71
2023/01/17 10:15:01;;;;;;;0.50;0.50;;;2.30;99.90;;;;;;5032453;28;20100;-72
2023/01/17 10:17:39;;;;;;;0.50;0.50;;;2.40;99.90;;;;;;5013190;28;20037;-71
2023/01/17 10:20:32;;;;;;;0.50;0.50;;;2.50;99.90;;;;;;5013180;28;20485;-71
2023/01/17 10:23:14;;;;;;;0.77;0.77;;;2.60;99.90;;;;;;5017601;28;20033;-71
2023/01/17 10:25:51;;;;;;;0.50;0.50;;;2.90;99.90;;;;;;5015118;28;20468;-71
2023/01/17 10:28:26;;;;;;;0.40;0.40;;;3.00;99.90;;;;;;5020954;28;20116;-71
2023/01/17 10:30:58;;;;;;;0.52;0.52;;;3.10;99.90;;;;;;5024858;28;20388;-71
2023/01/17 10:33:28;;;;;;;0.30;0.30;;;3.20;99.90;;;;;;5025320;28;20378;-71
2023/01/17 10:35:58;;;;;;;0.50;0.50;;;3.20;99.90;;;;;;5011512;28;20076;-71
2023/01/17 10:38:35;;;;;;;2.13;2.03;;;3.20;99.90;;;;;;5016503;28;20022;-71
2023/01/17 10:41:27;;;;;;;0.50;0.50;;;3.00;99.90;;;;;;5030228;28;20083;-72
2023/01/17 10:44:05;;;;;;;0.50;0.50;;;3.00;99.90;;;;;;5009069;28;20028;-72
2023/01/17 10:46:40;;;;;;;0.50;0.50;;;3.00;99.90;;;;;;5024098;28;20030;-71
2023/01/17 10:49:15;;;;;;;0.40;0.40;;;3.10;99.90;;;;;;5019731;28;20430;-71
2023/01/17 10:52:02;;;;;;;1.95;0.80;;;3.20;99.90;;;;;;5031736;28;20614;-71
2023/01/17 10:54:48;;;;;;;0.50;0.50;;;3.20;99.90;;;;;;5032041;28;20112;-71
2023/01/17 10:57:18;;;;;;;0.40;0.40;;;3.30;99.90;;;;;;5010356;28;20116;-72
2023/01/17 10:59:44;;;;;;;1.48;1.15;;;3.50;99.90;;;;;;5031907;28;20025;-71
2023/01/17 11:02:35;;;;;;;0.50;0.50;;;3.40;99.90;;;;;;5022087;28;20080;-72
2023/01/17 11:05:17;;;;;;;0.73;0.73;;;3.30;99.90;;;;;;5011766;28;20599;-71
2023/01/17 11:08:00;;;;;;;0.52;0.52;;;3.30;99.90;;;;;;5031087;28;20053;-71
2023/01/17 11:10:42;;;;;;;0.40;0.40;;;3.10;99.90;;;;;;5031759;28;20033;-72
2023/01/17 11:13:23;;;;;;;0.30;0.30;;;2.90;99.90;;;;;;5005376;28;20025;-71
2023/01/17 11:15:56;;;;;;;0.88;0.88;;;2.70;99.90;;;;;;5031082;28;20022;-71
2023/01/17 11:18:26;;;;;;;0.60;0.57;;;2.70;99.90;;;;;;5013525;28;20383;-71
2023/01/17 11:20:52;;;;;;;0.50;0.50;;;2.70;99.90;;;;;;5031361;28;20382;-71
2023/01/17 11:23:28;;;;;;;0.60;0.60;;;2.90;99.90;;;;;;5031606;28;20018;-71
2023/01/17 11:26:03;;;;;;;1.17;1.00;;;3.10;99.90;;;;;;5020098;28;20387;-73
2023/01/17 11:28:34;;;;;;;0.40;0.40;;;3.30;99.90;;;;;;5011689;28;20018;-72
2023/01/17 11:31:10;;;;;;;0.80;0.80;;;3.40;99.90;;;;;;4998650;28;20037;-72
2023/01/17 11:33:52;;;;;;;0.60;0.60;;;3.60;99.90;;;;;;5021079;28;20018;-71
2023/01/17 11:36:27;;;;;;;0.50;0.50;;;3.60;99.90;;;;;;5017483;28;20038;-73
2023/01/17 11:39:04;;;;;;;0.75;0.75;;;3.90;99.90;;;;;;5008783;28;20445;-71
2023/01/17 11:41:38;;;;;;;1.90;0.95;;;4.10;99.90;;;;;;5011845;28;20024;-72
2023/01/17 11:44:19;;;;;;;0.50;0.50;;;3.90;99.90;;;;;;5005691;28;20114;-72
2023/01/17 11:46:45;;;;;;;0.40;0.40;;;3.90;99.90;;;;;;5027540;28;20440;-72
2023/01/17 11:49:23;;;;;;;0.40;0.40;;;4.00;99.90;;;;;;5013630;28;20105;-72
2023/01/17 11:51:54;;;;;;;0.40;0.40;;;4.10;99.90;;;;;;5031536;28;20028;-72
2023/01/17 11:54:27;;;;;;;0.40;0.40;;;4.30;99.90;;;;;;5031244;28;20120;-72
2023/01/17 11:57:01;;;;;;;0.45;0.45;;;4.40;99.90;;;;;;5004153;28;20036;-72
2023/01/17 11:59:33;;;;;;;0.40;0.40;;;4.40;99.90;;;;;;5024967;28;20100;-72
2023/01/17 12:02:17;;;;;;;0.30;0.30;;;4.40;99.90;;;;;;5008009;28;20434;-71
2023/01/17 12:05:14;;;;;;;0.30;0.30;;;4.30;99.90;;;;;;5017753;28;20029;-72
2023/01/17 12:08:10;;;;;;;0.40;0.40;;;4.50;99.90;;;;;;5030520;28;20491;-72
2023/01/17 12:11:13;;;;;;;0.50;0.50;;;4.60;99.90;;;;;;5031365;28;20036;-72
2023/01/17 12:14:19;;;;;;;0.40;0.40;;;4.70;99.90;;;;;;4995191;28;20041;-71
2023/01/17 12:16:56;;;;;;;0.32;0.32;;;4.70;99.90;;;;;;4995504;28;20022;-71
2023/01/17 12:19:37;;;;;;;0.40;0.40;;;4.80;99.90;;;;;;5029901;28;20026;-72
2023/01/17 12:22:21;;;;;;;0.40;0.40;;;4.70;99.90;;;;;;5034739;28;20376;-72
2023/01/17 12:25:04;;;;;;;0.30;0.30;;;4.90;99.90;;;;;;5026101;28;20036;-72
2023/01/17 12:27:55;;;;;;;0.40;0.40;;;4.90;99.90;;;;;;5031826;28;20036;-72
2023/01/17 12:30:29;;;;;;;0.32;0.32;;;4.80;99.90;;;;;;5034774;28;20038;-72
2023/01/17 12:32:58;;;;;;;0.50;0.50;;;4.80;99.90;;;;;;5034661;28;20105;-72
2023/01/17 12:35:31;;;;;;;0.40;0.40;;;4.90;99.90;;;;;;5018841;28;20163;-71
2023/01/17 12:38:05;;;;;;;0.40;0.40;;;5.00;99.90;;;;;;5016159;28;20033;-72
2023/01/17 12:41:01;;;;;;;0.30;0.30;;;4.90;99.90;;;;;;5013450;28;20391;-71
2023/01/17 12:43:34;;;;;;;0.30;0.30;;;4.60;99.90;;;;;;5015604;28;20030;-73
2023/01/17 12:46:23;;;;;;;0.30;0.30;;;4.40;99.90;;;;;;5016790;28;20625;-72
2023/01/17 12:49:03;;;;;;;0.40;0.40;;;4.30;99.90;;;;;;5033019;28;20033;-72
2023/01/17 12:51:42;;;;;;;0.30;0.30;;;4.00;99.90;;;;;;5034402;28;20018;-71
2023/01/17 12:54:26;;;;;;;0.40;0.40;;;3.80;99.90;;;;;;5023473;28;20551;-71
2023/01/17 12:57:05;;;;;;;0.30;0.30;;;3.70;99.90;;;;;;5032690;28;20045;-72
2023/01/17 12:59:39;;;;;;;0.40;0.40;;;3.60;99.90;;;;;;5034271;28;20060;-71
2023/01/17 13:02:46;;;;;;;0.30;0.30;;;3.60;99.90;;;;;;5034137;28;20369;-71
2023/01/17 13:05:17;;;;;;;;;;;3.40;99.90;;;;;;5010684;28;20029;-72
2023/01/17 13:08:01;;;;;;;0.40;0.40;;;3.50;99.90;;;;;;5032271;28;19905;-72
2023/01/17 13:10:46;;;;;;;0.25;0.25;;;3.50;99.90;;;;;;5025042;28;20476;-71
2023/01/17 13:13:21;;;;;;;0.40;0.40;;;3.50;99.90;;;;;;5008391;28;20105;-72
2023/01/17 13:15:56;;;;;;;0.40;0.40;;;3.60;99.90;;;;;;5034169;28;20076;-72
2023/01/17 13:18:24;;;;;;;0.30;0.30;;;3.70;99.90;;;;;;5033756;28;20032;-71
2023/01/17 13:21:11;;;;;;;0.30;0.30;;;3.70;99.90;;;;;;5033911;28;20088;-72
2023/01/17 13:23:58;;;;;;;0.30;0.30;;;3.80;99.90;;;;;;5010394;28;20502;-72
2023/01/17 13:26:53;;;;;;;0.30;0.30;;;3.90;99.90;;;;;;5013953;28;20061;-72
2023/01/17 13:29:27;;;;;;;0.30;0.30;;;3.90;99.90;;;;;;5019724;28;20044;-72
2023/01/17 13:32:10;;;;;;;2.65;2.53;;;4.00;99.90;;;;;;5020205;28;20096;-72
2023/01/17 13:35:07;;;;;;;0.30;0.30;;;4.00;99.90;;;;;;5030852;28;20034;-73
2023/01/17 13:37:41;;;;;;;0.30;0.30;;;4.10;99.90;;;;;;5007524;28;20025;-72
2023/01/17 13:40:32;;;;;;;0.38;0.38;;;4.20;99.90;;;;;;5015657;28;20029;-71
2023/01/17 13:43:00;;;;;;;0.30;0.30;;;4.40;99.90;;;;;;5033475;28;20032;-72
2023/01/17 13:45:34;;;;;;;0.40;0.40;;;4.50;99.90;;;;;;5033265;28;20383;-72
2023/01/17 13:48:26;;;;;;;0.30;0.30;;;4.60;99.90;;;;;;5020290;28;20052;-72
2023/01/17 13:51:07;;;;;;;0.20;0.20;;;4.80;99.90;;;;;;5013658;28;20485;-71
2023/01/17 13:53:33;;;;;;;0.30;0.30;;;4.80;99.90;;;;;;5033147;28;20021;-72
2023/01/17 13:56:12;;;;;;;0.30;0.30;;;4.80;99.90;;;;;;5021893;28;20034;-71
2023/01/17 13:58:53;;;;;;;0.28;0.28;;;4.70;99.90;;;;;;5031198;23;1052433;-75
2023/01/17 14:01:21;;;;;;;0.73;0.73;;;4.70;99.90;;;;;;5032928;28;20078;-76
2023/01/17 14:03:52;;;;;;;0.50;0.50;;;4.50;99.90;;;;;;5042137;28;20086;-76
2023/01/17 14:06:35;;;;;;;0.30;0.30;;;4.20;99.90;;;;;;5031877;28;20029;-76
2023/01/17 14:09:06;;;;;;;0.93;0.80;;;4.10;99.90;;;;;;4995398;28;20449;-76
2023/01/17 14:11:34;;;;;;;0.30;0.30;;;4.00;99.90;;;;;;5014613;28;20022;-76
2023/01/17 14:14:37;;;;;;;0.82;0.82;;;3.80;99.90;;;;;;5015449;28;20039;-75
2023/01/17 14:17:15;;;;;;;0.30;0.30;;;3.60;99.90;;;;;;5019608;28;20506;-76
2023/01/17 14:19:41;;;;;;;0.40;0.40;;;3.40;99.90;;;;;;5032363;28;20522;-76
2023/01/17 14:22:25;;;;;;;0.25;0.25;;;3.30;99.90;;;;;;5033448;28;20025;-76
2023/01/17 14:25:13;;;;;;;0.50;0.50;;;3.20;99.90;;;;;;5013141;28;20087;-76
2023/01/17 14:27:42;;;;;;;0.30;0.30;;;3.10;99.90;;;;;;5025420;28;20072;-76
2023/01/17 14:30:23;;;;;;;0.28;0.28;;;3.10;99.90;;;;;;5024845;28;20791;-76
2023/01/17 14:32:57;;;;;;;0.30;0.30;;;3.10;99.90;;;;;;5012795;28;20037;-78
2023/01/17 14:35:28;;;;;;;0.30;0.30;;;3.20;99.90;;;;;;5028329;28;20021;-78
2023/01/17 14:37:56;;;;;;;0.40;0.40;;;3.40;99.90;;;;;;5007385;28;20429;-78
2023/01/17 14:40:29;;;;;;;0.30;0.30;;;3.30;99.90;;;;;;5000051;28;20483;-78
2023/01/17 14:43:05;;;;;;;0.30;0.30;;;3.40;99.90;;;;;;5007530;28;20036;-77
2023/01/17 14:45:33;;;;;;;0.30;0.30;;;3.40;99.90;;;;;;5001135;28;20037;-77